Flight Track Log - Related Links

Times and Time Zones

All times are in EDT time to prevent confusion due to time zone crossing. See the C-GSSA flight status page for this flight to view local times or setup timezone preferences in your user account.

Time Position Orientation Groundspeed Altitude Reporting Facility
EDT Latitude Longitude Course Direction KTS MPH feet Rate Location/Type
Mon 06:46:55 PM 35.2050 -80.9225 89° East 117 135 1,200  Level Atlanta Center
Mon 06:48:22 PM 35.2056 -80.8639 89° East 118 136 2,400 857 Climbing Atlanta Center
Mon 06:49:29 PM 35.2044 -80.8208 92° East 121 139 3,400 896 Climbing Atlanta Center
Mon 06:50:36 PM 35.1911 -80.7806 112° Southeast 126 145 4,400 750 Climbing Atlanta Center
Mon 06:51:37 PM 35.1611 -80.7539 144° Southeast 128 147 5,000 541 Climbing Atlanta Center
Mon 06:52:38 PM 35.1236 -80.7581 185° South 147 169 5,500 569 Climbing Atlanta Center
Mon 06:53:33 PM 35.0903 -80.7617 185° South 135 155 6,100 672 Climbing Atlanta Center
Mon 06:54:34 PM 35.0508 -80.7633 182° South 138 159 6,800 787 Climbing Atlanta Center
Mon 06:55:35 PM 35.0092 -80.7650 182° South 141 162 7,700 885 Climbing Atlanta Center
Mon 06:56:36 PM 34.9694 -80.7692 185° South 138 159 8,600 776 Climbing Atlanta Center
Mon 06:57:31 PM 34.9342 -80.7706 182° South 142 163 9,200 738 Climbing Atlanta Center
Mon 06:58:38 PM 34.8925 -80.7772 187° South 145 167 10,100 766 Climbing Atlanta Center
Mon 07:00:39 PM 34.8119 -80.7864 185° South 163 188 11,600 729 Climbing Jacksonville Center
Mon 07:01:39 PM 34.7700 -80.7772 170° South 155 178 12,300 700 Climbing Jacksonville Center
Mon 07:02:39 PM 34.7281 -80.7681 170° South 155 178 13,000 750 Climbing Jacksonville Center
Mon 07:03:39 PM 34.6844 -80.7742 187° South 155 178 13,800 750 Climbing Jacksonville Center
Mon 07:04:39 PM 34.6428 -80.7828 190° South 160 184 14,500 700 Climbing Jacksonville Center
Mon 07:05:39 PM 34.5969 -80.7864 184° South 160 184 15,200 700 Climbing Jacksonville Center
Mon 07:06:39 PM 34.5492 -80.7953 189° South 160 184 15,900 650 Climbing Jacksonville Center
Mon 07:07:39 PM 34.5014 -80.7989 184° South 160 184 16,500 700 Climbing Jacksonville Center
Mon 07:08:39 PM 34.4556 -80.8025 184° South 160 184 17,300 700 Climbing Jacksonville Center
Mon 07:09:39 PM 34.4075 -80.8111 188° South 165 190 17,900 650 Climbing Jacksonville Center
Mon 07:10:39 PM 34.3617 -80.8147 184° South 171 197 18,600 700 Climbing Jacksonville Center
Mon 07:11:39 PM 34.3161 -80.8211 187° South 171 197 19,300 650 Climbing Jacksonville Center
Mon 07:12:39 PM 34.2742 -80.8194 178° South 171 197 19,900 650 Climbing Jacksonville Center
Mon 07:13:39 PM 34.2264 -80.8256 186° South 171 197 20,600 700 Climbing Jacksonville Center
Mon 07:14:39 PM 34.1806 -80.8317 186° South 165 190 21,300 650 Climbing Jacksonville Center
Mon 07:15:39 PM 34.1347 -80.8403 189° South 165 190 21,900 550 Climbing Jacksonville Center
Mon 07:16:39 PM 34.0889 -80.8414 181° South 165 190 22,400 500 Climbing Jacksonville Center
Mon 07:17:39 PM 34.0453 -80.8475 187° South 165 190 22,900 500 Climbing Jacksonville Center
Mon 07:18:39 PM 33.9972 -80.8511 184° South 165 190 23,400 500 Climbing Jacksonville Center
Mon 07:19:39 PM 33.9536 -80.8547 184° South 165 190 23,900 300 Climbing Jacksonville Center
Mon 07:20:39 PM 33.9056 -80.8633 188° South 165 190 24,000 50 Climbing Jacksonville Center
Mon 07:21:39 PM 33.8600 -80.8792 196° South 170 196 24,000  Level Jacksonville Center
Mon 07:22:39 PM 33.8208 -80.9078 211° Southwest 170 196 24,000  Level Jacksonville Center
Mon 07:23:39 PM 33.7794 -80.9386 212° Southwest 175 201 24,000  Level Jacksonville Center
Mon 07:24:39 PM 33.7361 -80.9669 209° Southwest 180 207 24,000  Level Jacksonville Center
Mon 07:25:39 PM 33.6969 -81.0003 215° Southwest 180 207 24,000  Level Jacksonville Center
Mon 07:26:39 PM 33.6536 -81.0286 209° Southwest 180 207 24,000  Level Jacksonville Center
Mon 07:27:39 PM 33.6122 -81.0594 212° Southwest 180 207 24,000  Level Jacksonville Center
Mon 07:28:39 PM 33.5731 -81.0878 211° Southwest 180 207 24,000  Level Jacksonville Center
Mon 07:29:39 PM 33.5317 -81.1161 210° Southwest 180 207 24,000  Level Jacksonville Center
Mon 07:30:39 PM 33.4925 -81.1467 213° Southwest 175 201 24,000  Level Jacksonville Center
Mon 07:31:40 PM 33.4511 -81.1750 210° Southwest 175 201 24,000  Level Jacksonville Center
Mon 07:32:39 PM 33.4078 -81.2031 208° Southwest 175 201 24,000  Level Jacksonville Center
Mon 07:33:39 PM 33.3664 -81.2361 214° Southwest 180 207 24,000  Level Jacksonville Center
Mon 07:34:39 PM 33.3231 -81.2644 209° Southwest 180 207 24,000  Level Jacksonville Center
Mon 07:35:39 PM 33.2817 -81.2975 214° Southwest 180 207 24,000  Level Jacksonville Center
Mon 07:36:39 PM 33.2381 -81.3281 210° Southwest 180 207 24,000  Level Jacksonville Center
Mon 07:37:39 PM 33.1967 -81.3561 210° Southwest 180 207 24,000  Level Jacksonville Center
Mon 07:38:39 PM 33.1553 -81.3839 209° Southwest 180 207 24,000  Level Jacksonville Center
Mon 07:39:39 PM 33.1119 -81.4144 211° Southwest 180 207 24,000  Level Jacksonville Center
Mon 07:40:39 PM 33.0706 -81.4425 210° Southwest 180 207 24,000  Level Jacksonville Center
Mon 07:41:39 PM 33.0311 -81.4728 213° Southwest 174 200 24,000  Level Jacksonville Center
Mon 07:42:39 PM 32.9919 -81.5008 211° Southwest 174 200 24,000  Level Jacksonville Center
Mon 07:43:39 PM 32.9483 -81.5286 208° Southwest 174 200 24,000  Level Jacksonville Center
Mon 07:44:40 PM 32.9089 -81.5589 213° Southwest 174 200 24,000  Level Jacksonville Center
Mon 07:45:39 PM 32.8697 -81.5867 211° Southwest 174 200 24,000  Level Jacksonville Center
Mon 07:46:39 PM 32.8281 -81.6169 211° Southwest 174 200 24,000  Level Jacksonville Center
Mon 07:47:39 PM 32.7867 -81.6447 209° Southwest 174 200 24,000  Level Jacksonville Center
Mon 07:48:39 PM 32.7472 -81.6750 213° Southwest 179 206 24,000  Level Jacksonville Center
Mon 07:49:39 PM 32.7078 -81.6978 206° Southwest 179 206 24,000  Level Jacksonville Center
Mon 07:50:39 PM 32.6644 -81.7328 214° Southwest 184 212 24,000  Level Jacksonville Center
Mon 07:51:39 PM 32.6228 -81.7606 209° Southwest 184 212 24,000  Level Jacksonville Center
Mon 07:52:39 PM 32.5856 -81.7881 212° Southwest 184 212 24,000  Level Jacksonville Center
Mon 07:53:39 PM 32.5378 -81.8206 210° Southwest 184 212 24,000  Level Jacksonville Center
Mon 07:54:39 PM 32.4983 -81.8481 210° Southwest 179 206 24,000  Level Jacksonville Center
Mon 07:55:39 PM 32.4528 -81.8806 211° Southwest 184 212 24,000  Level Jacksonville Center
Mon 07:56:39 PM 32.4069 -81.9108 209° Southwest 184 212 24,000  Level Jacksonville Center
Mon 07:57:39 PM 32.3633 -81.9308 201° Southwest 184 212 24,000  Level Jacksonville Center
Mon 07:58:39 PM 32.3069 -81.9486 195° South 184 212 24,000  Level Jacksonville Center
Mon 07:59:39 PM 32.2633 -81.9639 197° South 184 212 24,000  Level Jacksonville Center
Mon 08:00:39 PM 32.2092 -81.9817 196° South 184 212 24,000  Level Jacksonville Center
Mon 08:01:39 PM 32.1592 -81.9969 195° South 184 212 24,000  Level Jacksonville Center
Mon 08:02:39 PM 32.1156 -82.0144 199° South 184 212 24,000  Level Jacksonville Center
Mon 08:03:39 PM 32.0592 -82.0322 195° South 184 212 24,000  Level Jacksonville Center
Mon 08:04:39 PM 32.0114 -82.0472 195° South 184 212 24,000  Level Jacksonville Center
Mon 08:05:39 PM 31.9675 -82.0625 196° South 184 212 24,000  Level Jacksonville Center
Mon 08:06:39 PM 31.9111 -82.0703 187° South 184 212 24,000  Level Jacksonville Center
Mon 08:07:39 PM 31.8633 -82.0756 185° South 184 212 24,000  Level Jacksonville Center
Mon 08:08:39 PM 31.8050 -82.0858 189° South 197 227 24,000  Level Jacksonville Center
Mon 08:09:39 PM 31.7528 -82.0936 187° South 202 232 24,000  Level Jacksonville Center
Mon 08:10:39 PM 31.7025 -82.0989 185° South 202 232 24,000  Level Jacksonville Center
Mon 08:11:39 PM 31.6442 -82.1092 189° South 197 227 24,000  Level Jacksonville Center
Mon 08:12:39 PM 31.5964 -82.1194 190° South 197 227 24,000  Level Jacksonville Center
Mon 08:13:39 PM 31.5419 -82.1247 185° South 197 227 24,000  Level Jacksonville Center
Mon 08:14:39 PM 31.4897 -82.1300 185° South 197 227 24,000  Level Jacksonville Center
Mon 08:15:39 PM 31.4356 -82.1378 187° South 197 227 24,000  Level Jacksonville Center
Mon 08:16:39 PM 31.3814 -82.1478 189° South 197 227 24,000  Level Jacksonville Center
Mon 08:17:39 PM 31.3272 -82.1531 185° South 197 227 24,000  Level Jacksonville Center
Mon 08:18:39 PM 31.2750 -82.1608 187° South 197 227 24,000  Level Jacksonville Center
Mon 08:19:39 PM 31.2208 -82.1661 185° South 197 227 24,000  Level Jacksonville Center
Mon 08:20:39 PM 31.1664 -82.1764 189° South 197 227 24,000  Level Jacksonville Center
Mon 08:21:39 PM 31.1103 -82.1817 185° South 197 227 24,000  Level Jacksonville Center
Mon 08:22:39 PM 31.0539 -82.1917 189° South 202 232 24,000  Level Jacksonville Center
Mon 08:23:39 PM 30.9994 -82.1969 185° South 202 232 24,000  Level Jacksonville Center
Mon 08:24:40 PM 30.9453 -82.2047 187° South 202 232 24,000  Level Jacksonville Center
Mon 08:25:39 PM 30.8869 -82.2125 187° South 202 232 24,000  Level Jacksonville Center
Mon 08:26:39 PM 30.8306 -82.2175 184° South 202 232 24,000  Level Jacksonville Center
Mon 08:27:39 PM 30.7764 -82.2278 189° South 202 232 24,000  Level Jacksonville Center
Mon 08:28:39 PM 30.7200 -82.2353 187° South 202 232 24,000  Level Jacksonville Center
Mon 08:29:39 PM 30.6636 -82.2406 185° South 202 232 24,000  Level Jacksonville Center
Mon 08:30:39 PM 30.6094 -82.2481 187° South 202 232 24,000  Level Jacksonville Center
Mon 08:31:39 PM 30.5489 -82.2533 184° South 197 227 24,000  Level Jacksonville Center
Mon 08:32:39 PM 30.4947 -82.2586 185° South 197 227 24,000  Level Jacksonville Center
Mon 08:33:39 PM 30.4403 -82.2686 189° South 197 227 24,000  Level Jacksonville Center
Mon 08:34:39 PM 30.3861 -82.2761 187° South 203 234 24,000  Level Jacksonville Center
Mon 08:35:39 PM 30.3319 -82.2814 185° South 198 228 24,000  Level Jacksonville Center
Mon 08:36:39 PM 30.2756 -82.2914 189° South 198 228 24,000  Level Jacksonville Center
Mon 08:37:39 PM 30.2192 -82.2964 184° South 198 228 24,000  Level Jacksonville Center
Mon 08:38:39 PM 30.1650 -82.3039 187° South 203 234 24,000  Level Jacksonville Center
Mon 08:39:39 PM 30.1064 -82.3117 187° South 203 234 24,000  Level Jacksonville Center
Mon 08:40:39 PM 30.0503 -82.3189 186° South 203 234 24,000  Level Jacksonville Center
Mon 08:41:39 PM 29.9939 -82.3314 191° South 203 234 24,000  Level Jacksonville Center
Mon 08:42:39 PM 29.9375 -82.3389 187° South 203 234 24,000  Level Jacksonville Center
Mon 08:43:40 PM 29.8833 -82.3417 183° South 198 228 24,000  Level Jacksonville Center
Mon 08:44:39 PM 29.8269 -82.3492 187° South 198 228 24,000  Level Jacksonville Center
Mon 08:45:39 PM 29.7728 -82.3589 189° South 198 228 24,000  Level Jacksonville Center
Mon 08:46:39 PM 29.7164 -82.3642 185° South 198 228 24,000  Level Jacksonville Center
Mon 08:47:39 PM 29.6622 -82.3717 187° South 198 228 24,000  Level Jacksonville Center
Mon 08:48:39 PM 29.6058 -82.3789 186° South 198 228 24,000  Level Jacksonville Center
Mon 08:49:39 PM 29.5494 -82.3864 187° South 198 228 24,000  Level Jacksonville Center
Mon 08:50:39 PM 29.4953 -82.3939 187° South 198 228 24,000 -150 Level Jacksonville Center
Mon 08:51:39 PM 29.4367 -82.4014 186° South 198 228 23,700 -200 Descending Jacksonville Center
Mon 08:52:39 PM 29.3783 -82.4089 186° South 203 234 23,600 -350 Descending Jacksonville Center
Mon 08:53:39 PM 29.3200 -82.4186 188° South 213 245 23,000 -300 Descending Jacksonville Center
Mon 08:54:39 PM 29.2594 -82.4261 186° South 219 252 23,000  Level Jacksonville Center
Mon 08:55:39 PM 29.2011 -82.4333 186° South 219 252 23,000  Level Jacksonville Center
Mon 08:56:39 PM 29.1425 -82.4386 184° South 219 252 23,000  Level Jacksonville Center
Mon 08:57:39 PM 29.0842 -82.4458 186° South 219 252 23,000  Level Jacksonville Center
Mon 08:58:39 PM 29.0256 -82.4389 174° South 214 246 23,000  Level Jacksonville Center
Mon 08:59:39 PM 28.9650 -82.4297 172° South 214 246 23,000  Level Jacksonville Center
Mon 09:00:40 PM 28.9086 -82.4206 172° South 214 246 23,000  Level Jacksonville Center
Mon 09:01:39 PM 28.8481 -82.4139 174° South 214 246 23,000  Level Jacksonville Center
Mon 09:02:39 PM 28.7897 -82.4044 172° South 219 252 23,000  Level Jacksonville Center
Mon 09:03:39 PM 28.7311 -82.3953 172° South 219 252 23,000  Level Jacksonville Center
Mon 09:04:39 PM 28.6789 -82.3933 178° South 219 252 23,000  Level Jacksonville Center
Mon 09:05:39 PM 28.6183 -82.3864 174° South 219 252 23,000  Level Jacksonville Center
Mon 09:06:39 PM 28.5600 -82.3750 170° South 219 252 23,000  Level Jacksonville Center
Mon 09:07:39 PM 28.4994 -82.3681 174° South 219 252 23,000  Level Jacksonville Center
Mon 09:08:39 PM 28.4411 -82.3614 174° South 219 252 23,000  Level Jacksonville Center
Mon 09:09:39 PM 28.3806 -82.3547 174° South 219 252 23,000  Level Jacksonville Center
Mon 09:11:51 PM 28.2483 -82.3381 174° South 218 251 23,000  Level Miami Center
Mon 09:12:51 PM 28.1858 -82.3303 174° South 218 251 23,000  Level Miami Center
Mon 09:13:51 PM 28.1281 -82.3203 171° South 213 245 23,000  Level Miami Center
Mon 09:14:51 PM 28.0675 -82.3150 176° South 218 251 23,000  Level Miami Center
Mon 09:15:51 PM 28.0078 -82.2981 166° South 218 251 23,000  Level Miami Center
Mon 09:16:51 PM 27.9500 -82.2789 164° South 218 251 23,000  Level Miami Center
Mon 09:17:51 PM 27.8925 -82.2597 164° South 218 251 23,000  Level Miami Center
Mon 09:18:51 PM 27.8306 -82.2403 164° South 218 251 23,000  Level Miami Center
Mon 09:19:51 PM 27.7750 -82.2214 163° South 218 251 23,000  Level Miami Center
Mon 09:20:51 PM 27.7153 -82.1997 162° South 223 257 23,000  Level Miami Center
Mon 09:21:51 PM 27.6617 -82.1808 163° South 223 257 23,000  Level Miami Center
Mon 09:22:51 PM 27.6019 -82.1594 162° South 223 257 23,000  Level Miami Center
Mon 09:23:51 PM 27.5381 -82.1375 163° South 223 257 23,000  Level Miami Center
Mon 09:24:51 PM 27.4803 -82.1186 164° South 223 257 23,000  Level Miami Center
Mon 09:25:51 PM 27.4228 -82.0972 162° South 223 257 23,000  Level Miami Center
Mon 09:26:51 PM 27.3689 -82.0831 167° South 219 252 23,000  Level Miami Center
Mon 09:27:51 PM 27.3069 -82.0617 163° South 219 252 23,000  Level Miami Center
Mon 09:28:51 PM 27.2472 -82.0403 162° South 219 252 23,000  Level Miami Center
Mon 09:29:51 PM 27.1917 -82.0214 163° South 219 252 23,000  Level Miami Center
Mon 09:30:51 PM 27.1400 -82.0050 164° South 219 252 23,000  Level Miami Center
Mon 09:31:51 PM 27.0803 -81.9861 164° South 219 252 23,000  Level Miami Center
Mon 09:32:51 PM 27.0164 -81.9622 162° South 219 252 23,000 -200 Level Miami Center
Mon 09:33:51 PM 26.9586 -81.9411 162° South 219 252 22,600 -650 Descending Miami Center
Mon 09:34:51 PM 26.8947 -81.9197 163° South 232 267 21,700 -750 Descending Miami Center
Mon 09:35:51 PM 26.8444 -81.8617 134° Southeast 237 273 21,100 -600 Descending Miami Center
Mon 09:36:51 PM 26.7942 -81.8083 137° Southeast 250 288 20,500 -650 Descending Miami Center
Mon 09:37:51 PM 26.7458 -81.7553 136° Southeast 250 288 19,800 -650 Descending Miami Center
Mon 09:38:51 PM 26.6975 -81.6997 134° Southeast 250 288 19,200 -400 Descending Miami Center
Mon 09:39:51 PM 26.6892 -81.6367 98° East 220 253 19,000 -100 Descending Miami Center
Mon 09:40:51 PM 26.7039 -81.5675 77° East 213 245 19,000  Level Miami Center
Mon 09:41:51 PM 26.7211 -81.4939 75° East 213 245 19,000  Level Miami Center
Mon 09:42:51 PM 26.7356 -81.4269 76° East 220 253 19,000 -150 Level Miami Center
Mon 09:43:51 PM 26.7544 -81.3581 73° East 220 253 18,700 -350 Descending Miami Center
Mon 09:44:51 PM 26.7669 -81.2911 78° East 220 253 18,300 -450 Descending Miami Center
Mon 09:45:51 PM 26.7836 -81.2264 74° East 228 262 17,800 350 Descending Miami Center
Mon 09:46:51 PM 26.8025 -81.1481 75° East 228 262 19,000 600 Climbing Miami Center
Mon 09:47:51 PM 26.8172 -81.0767 77° East 233 268 19,000  Level Miami Center
Mon 09:48:51 PM 26.8233 -81.0117 84° East 233 268 19,000  Level Miami Center
Mon 09:49:51 PM 26.8292 -80.9467 84° East 226 260 19,000  Level Miami Center
Mon 09:50:51 PM 26.8375 -80.8772 82° East 215 247 19,000  Level Miami Center
Mon 09:51:51 PM 26.8244 -80.8183 104° East 195 224 19,000  Level Miami Center
Mon 09:52:51 PM 26.8342 -80.7700 77° East 171 197 19,000  Level Miami Center
Mon 09:53:51 PM 26.8603 -80.7267 56° Northeast 170 196 19,000  Level Miami Center
Mon 09:54:51 PM 26.8908 -80.6786 55° Northeast 187 215 19,000  Level Miami Center
Mon 09:55:51 PM 26.9278 -80.6239 53° Northeast 196 226 19,000  Level Miami Center
Mon 09:56:51 PM 26.9583 -80.5736 56° Northeast 191 220 19,000  Level Miami Center
Mon 09:58:51 PM 27.0192 -80.4800 54° Northeast 191 220 19,000  Level Miami Center
Mon 09:59:51 PM 27.0539 -80.4275 53° Northeast 191 220 19,000  Level Miami Center
Mon 10:00:51 PM 27.0842 -80.3794 55° Northeast 191 220 19,000  Level Miami Center
Mon 10:01:51 PM 27.1147 -80.3314 54° Northeast 191 220 19,000  Level Miami Center
Mon 10:02:51 PM 27.1547 -80.3117 24° Northeast 176 203 19,000  Level Miami Center
Mon 10:03:51 PM 27.1950 -80.2942 21° North 166 191 19,000  Level Miami Center
Mon 10:04:51 PM 27.2225 -80.2692 39° Northeast 134 154 19,000  Level Miami Center
Mon 10:05:51 PM 27.2544 -80.2467 32° Northeast 134 154 19,000  Level Miami Center
Mon 10:07:00 PM 27.1983 -80.2271 North  Level Estimated
Mon 10:14:00 PM 27.1817 -80.2213 North  Level Estimated
Mon 10:15:00 PM 27.1817 -80.2213 North  Level Estimated
Mon 10:16:00 PM 27.1817 -80.2213 North  Level Estimated
Mon 10:17:00 PM 27.1817 -80.2213 North  Level Estimated
Mon 10:18:00 PM 27.1817 -80.2213 North  Level Estimated
Mon 10:19:00 PM 27.1817 -80.2213 North  Level Estimated
Mon 10:20:00 PM 27.1817 -80.2213 North  Level Estimated
Mon 10:21:00 PM 27.1817 -80.2213 North  Level Estimated
Mon 10:22:00 PM 27.1817 -80.2213 North  Level Estimated
Mon 10:23:00 PM 27.1817 -80.2213 North  Level Estimated
Mon 10:24:00 PM 27.1817 -80.2213 North  Level Estimated
Mon 10:25:00 PM 27.1817 -80.2213 North  Level Estimated
Mon 10:26:00 PM 27.1817 -80.2213 North  Level Estimated
Mon 10:27:00 PM 27.1817 -80.2213 North  Level Estimated
Mon 10:28:00 PM 27.1817 -80.2213 North  Level Estimated
Mon 10:29:00 PM 27.1817 -80.2213 North  Level Estimated
Mon 10:30:00 PM 27.1817 -80.2213 North  Level Estimated
Mon 10:31:00 PM 27.1817 -80.2213 North  Level Estimated
Mon 10:32:00 PM 27.1817 -80.2213 North  Level Estimated

Login

Don't have an account? Register now (free) for customized features, flight alerts, and more!